createdAt,value
2018-11-21T00:03:13.427Z,61.43
2018-11-21T00:08:15.725Z,61.37
2018-11-21T00:13:17.897Z,61.24
2018-11-21T00:18:20.069Z,61.04
2018-11-21T00:23:22.378Z,61.16
2018-11-21T00:28:24.583Z,61.14
2018-11-21T00:33:27.140Z,61.00
2018-11-21T00:38:30.123Z,61.03
2018-11-21T00:43:32.471Z,60.95
2018-11-21T00:48:34.643Z,60.76
2018-11-21T00:53:37.520Z,60.83
2018-11-21T00:58:40.043Z,61.00
2018-11-21T01:03:42.971Z,60.92
2018-11-21T01:08:46.061Z,60.98
2018-11-21T01:13:48.590Z,60.89
2018-11-21T01:18:51.076Z,60.98
2018-11-21T01:23:54.479Z,60.75
2018-11-21T01:28:56.949Z,60.85
2018-11-21T01:33:59.572Z,60.71
2018-11-21T01:39:02.717Z,60.74
2018-11-21T01:44:05.553Z,60.75
2018-11-21T01:49:07.734Z,60.62
2018-11-21T01:54:10.266Z,60.30
2018-11-21T01:59:12.518Z,60.46
2018-11-21T02:04:15.058Z,60.30
2018-11-21T02:09:17.274Z,60.30
2018-11-21T02:14:19.982Z,60.21
2018-11-21T02:19:22.179Z,60.22
2018-11-21T02:24:25.293Z,60.12
2018-11-21T02:29:27.801Z,60.16
2018-11-21T02:34:30.382Z,60.03
2018-11-21T02:39:33.286Z,60.07
2018-11-21T02:44:35.581Z,59.98
2018-11-21T02:49:39.321Z,60.00
2018-11-21T02:54:41.588Z,60.04
2018-11-21T02:59:44.494Z,59.85
2018-11-21T03:04:47.494Z,60.16
2018-11-21T03:09:49.978Z,60.30
2018-11-21T03:14:53.010Z,60.43
2018-11-21T03:19:55.721Z,60.37
2018-11-21T03:24:58.540Z,60.40
2018-11-21T03:30:00.772Z,60.22
2018-11-21T03:35:03.482Z,60.38
2018-11-21T03:40:08.723Z,60.37
2018-11-21T03:45:11.807Z,60.46
2018-11-21T03:50:14.015Z,60.20
2018-11-21T03:55:16.552Z,60.19
2018-11-21T04:00:18.716Z,60.42
2018-11-21T04:05:20.999Z,60.56
2018-11-21T04:10:23.546Z,60.72
2018-11-21T04:15:25.704Z,60.64
2018-11-21T04:20:28.512Z,60.66
2018-11-21T04:25:31.400Z,60.77
2018-11-21T04:30:34.517Z,60.85
2018-11-21T04:35:37.078Z,60.84
2018-11-21T04:40:39.280Z,60.78
2018-11-21T04:45:41.538Z,61.04
2018-11-21T04:50:44.062Z,60.97
2018-11-21T04:55:46.475Z,60.75
2018-11-21T05:00:49.489Z,61.16
2018-11-21T05:05:51.749Z,61.25
2018-11-21T05:10:54.019Z,61.23
2018-11-21T05:15:56.170Z,61.07
2018-11-21T05:20:58.391Z,61.14
2018-11-21T05:26:00.935Z,61.25
2018-11-21T05:31:03.580Z,61.36
2018-11-21T05:36:05.838Z,61.30
2018-11-21T05:41:08.447Z,61.36
2018-11-21T05:46:10.738Z,61.25
2018-11-21T05:51:12.945Z,61.42
2018-11-21T05:56:15.218Z,61.41
2018-11-21T06:01:17.741Z,61.52
2018-11-21T06:06:19.899Z,61.56
2018-11-21T06:11:22.466Z,61.42
2018-11-21T06:16:25.015Z,61.65
2018-11-21T06:21:27.610Z,61.66
2018-11-21T06:26:30.372Z,61.89
2018-11-21T06:31:32.661Z,61.76
2018-11-21T06:36:35.391Z,61.90
2018-11-21T06:41:37.965Z,61.77
2018-11-21T06:46:40.517Z,61.95
2018-11-21T06:51:43.705Z,61.82
2018-11-21T06:56:45.875Z,62.00
2018-11-21T07:01:48.705Z,62.11
2018-11-21T07:06:50.992Z,62.11
2018-11-21T07:11:53.809Z,62.18
2018-11-21T07:16:56.686Z,62.02
2018-11-21T07:21:59.165Z,62.18
2018-11-21T07:27:01.494Z,62.28
2018-11-21T07:32:04.290Z,62.32
2018-11-21T07:37:06.515Z,62.33
2018-11-21T07:42:09.340Z,62.20
2018-11-21T07:47:12.608Z,62.38
2018-11-21T07:52:14.893Z,62.42
2018-11-21T07:57:34.773Z,62.60
2018-11-21T08:02:38.549Z,62.83
2018-11-21T08:07:49.289Z,63.14
2018-11-21T08:13:07.676Z,63.17
2018-11-21T08:18:28.530Z,63.08
2018-11-21T08:23:46.388Z,63.23
2018-11-21T08:28:48.954Z,63.09
2018-11-21T08:33:51.212Z,62.80
2018-11-21T08:38:54.056Z,63.00
2018-11-21T08:48:59.862Z,62.73
2018-11-21T08:54:02.065Z,62.82
2018-11-21T08:59:06.658Z,62.77
2018-11-21T09:04:09.224Z,62.72
2018-11-21T09:09:12.071Z,62.69
2018-11-21T09:14:14.789Z,62.69
2018-11-21T09:19:17.211Z,62.56
2018-11-21T09:24:20.041Z,62.47
2018-11-21T09:29:23.175Z,62.61
2018-11-21T09:34:25.443Z,62.46
2018-11-21T09:39:27.720Z,62.86
2018-11-21T09:44:30.315Z,62.94
2018-11-21T09:49:32.650Z,62.78
2018-11-21T09:54:34.819Z,62.75
2018-11-21T09:59:37.862Z,63.01
2018-11-21T10:04:40.603Z,63.02
2018-11-21T10:09:44.808Z,63.22
2018-11-21T10:14:47.245Z,63.32
2018-11-21T10:19:50.363Z,63.39
2018-11-21T10:24:52.633Z,63.39
2018-11-21T10:29:55.115Z,63.27
2018-11-21T10:34:57.740Z,63.45
2018-11-21T10:40:00.243Z,63.59
2018-11-21T10:45:02.536Z,63.75
2018-11-21T10:50:06.399Z,63.69
2018-11-21T10:55:08.631Z,63.77
2018-11-21T11:00:33.167Z,63.93
2018-11-21T11:05:54.054Z,64.17
2018-11-21T11:11:24.425Z,64.00
2018-11-21T11:16:59.982Z,64.09
2018-11-21T11:22:22.684Z,63.97
2018-11-21T11:27:35.124Z,63.84
2018-11-21T11:32:50.893Z,63.74
2018-11-21T11:38:12.710Z,63.66
2018-11-21T11:43:33.703Z,63.65
2018-11-21T11:48:54.459Z,63.75
2018-11-21T11:54:15.223Z,63.55
2018-11-21T11:59:40.143Z,63.21
2018-11-21T12:05:11.519Z,63.64
2018-11-21T12:10:33.418Z,63.64
2018-11-21T12:15:55.350Z,63.42
2018-11-21T12:21:16.148Z,63.46
2018-11-21T12:26:38.077Z,63.12
2018-11-21T12:31:58.720Z,63.28
2018-11-21T12:37:19.490Z,63.47
2018-11-21T12:42:41.397Z,63.35
2018-11-21T12:48:02.245Z,63.23
2018-11-21T12:53:24.180Z,63.16
2018-11-21T12:58:50.142Z,63.02
2018-11-21T13:03:58.399Z,62.91
2018-11-21T13:09:19.023Z,62.90
2018-11-21T13:14:43.734Z,62.70
2018-11-21T13:20:23.598Z,62.84
2018-11-21T13:25:44.495Z,62.52
2018-11-21T13:31:05.050Z,62.69
2018-11-21T13:36:21.306Z,62.82
2018-11-21T13:41:41.828Z,62.87
2018-11-21T13:47:06.880Z,62.92
2018-11-21T13:52:17.621Z,63.16
2018-11-21T13:57:20.368Z,63.48
2018-11-21T14:02:22.646Z,63.74
2018-11-21T14:07:25.048Z,63.96
2018-11-21T14:12:27.294Z,64.14
2018-11-21T14:17:30.225Z,64.33
2018-11-21T14:22:33.815Z,64.46
2018-11-21T14:27:36.319Z,64.55
2018-11-21T14:32:39.771Z,64.49
2018-11-21T14:37:42.698Z,64.34
2018-11-21T14:42:45.124Z,64.36
2018-11-21T14:47:50.899Z,64.44
2018-11-21T14:52:53.403Z,64.27
2018-11-21T14:57:55.665Z,64.41
2018-11-21T15:02:58.168Z,64.44
2018-11-21T15:08:01.176Z,64.33
2018-11-21T15:13:03.682Z,64.33
2018-11-21T15:18:06.250Z,64.38
2018-11-21T15:23:08.910Z,64.17
2018-11-21T15:28:11.708Z,64.33
2018-11-21T15:33:13.939Z,64.31
2018-11-21T15:38:16.277Z,64.48
2018-11-21T15:43:19.084Z,64.53
2018-11-21T15:48:22.244Z,64.50
2018-11-21T15:53:24.820Z,64.44
2018-11-21T15:58:27.565Z,64.39
2018-11-21T16:03:29.783Z,64.36
2018-11-21T16:08:31.957Z,64.40
2018-11-21T16:13:34.134Z,64.26
2018-11-21T16:18:36.381Z,64.23
2018-11-21T16:23:40.094Z,64.49
2018-11-21T16:28:42.248Z,64.58
2018-11-21T16:33:45.884Z,64.40
2018-11-21T16:38:48.053Z,64.50
2018-11-21T16:43:50.415Z,64.65
2018-11-21T16:48:53.060Z,64.78
2018-11-21T16:53:55.252Z,64.84
2018-11-21T16:58:58.433Z,64.70
2018-11-21T17:04:00.719Z,64.34
2018-11-21T17:09:04.974Z,64.66
2018-11-21T17:14:07.418Z,64.67
2018-11-21T17:19:10.229Z,64.64
2018-11-21T17:24:13.193Z,64.68
2018-11-21T17:29:15.770Z,64.56
2018-11-21T17:34:18.724Z,64.59
2018-11-21T17:39:21.759Z,64.41
2018-11-21T17:44:24.326Z,64.58
2018-11-21T17:49:26.882Z,64.43
2018-11-21T17:54:29.837Z,64.61
2018-11-21T17:59:31.974Z,64.61
2018-11-21T18:04:34.757Z,64.34
2018-11-21T18:09:43.851Z,64.69
2018-11-21T18:14:46.052Z,64.91
2018-11-21T18:19:48.625Z,64.92
2018-11-21T18:24:50.805Z,64.95
2018-11-21T18:29:53.654Z,65.08
2018-11-21T18:34:56.098Z,65.44
2018-11-21T18:39:58.968Z,65.29
2018-11-21T18:45:01.198Z,65.46
2018-11-21T18:50:08.046Z,65.37
2018-11-21T18:55:11.053Z,65.55
2018-11-21T19:00:21.510Z,65.47
2018-11-21T19:05:24.146Z,65.45
2018-11-21T19:10:26.412Z,65.63
2018-11-21T19:15:28.699Z,65.67
2018-11-21T19:20:30.906Z,65.67
2018-11-21T19:25:33.381Z,65.60
2018-11-21T19:30:35.656Z,65.45
2018-11-21T19:35:38.439Z,65.75
2018-11-21T19:40:40.601Z,65.71
2018-11-21T19:45:42.755Z,65.68
2018-11-21T19:50:45.316Z,65.73
2018-11-21T19:55:47.862Z,65.64
2018-11-21T20:00:50.120Z,65.84
2018-11-21T20:05:52.301Z,65.79
2018-11-21T20:10:54.648Z,65.79
2018-11-21T20:15:56.812Z,65.67
2018-11-21T20:20:59.270Z,65.64
2018-11-21T20:26:01.524Z,65.55
2018-11-21T20:31:04.161Z,65.64
2018-11-21T20:36:06.960Z,65.62
2018-11-21T20:41:09.920Z,65.76
2018-11-21T20:46:13.179Z,65.86
2018-11-21T20:51:16.585Z,65.91
2018-11-21T20:56:19.527Z,65.81
2018-11-21T21:01:22.694Z,66.02
2018-11-21T21:06:26.322Z,65.95
2018-11-21T21:11:30.020Z,65.87
2018-11-21T21:16:33.292Z,65.89
2018-11-21T21:21:35.791Z,65.98
2018-11-21T21:26:38.677Z,65.78
2018-11-21T21:31:41.342Z,65.91
2018-11-21T21:36:43.511Z,65.83
2018-11-21T21:41:45.718Z,65.80
2018-11-21T21:46:48.566Z,65.75
2018-11-21T21:51:51.125Z,65.90
2018-11-21T21:56:53.586Z,65.87
2018-11-21T22:01:55.814Z,66.05
2018-11-21T22:06:58.052Z,66.06
2018-11-21T22:12:00.242Z,66.06
2018-11-21T22:17:02.526Z,65.95
2018-11-21T22:22:05.541Z,65.81
2018-11-21T22:27:07.872Z,65.81
2018-11-21T22:32:10.804Z,65.56
2018-11-21T22:37:13.372Z,65.79
2018-11-21T22:42:16.399Z,65.80
2018-11-21T22:47:18.690Z,65.80
2018-11-21T22:52:20.863Z,65.90
2018-11-21T22:57:23.095Z,65.98
2018-11-21T23:02:25.202Z,66.15
2018-11-21T23:07:27.689Z,66.41
2018-11-21T23:12:30.586Z,66.52
2018-11-21T23:17:33.116Z,66.54
2018-11-21T23:22:35.714Z,67.01
2018-11-21T23:27:38.682Z,66.99
2018-11-21T23:32:41.859Z,67.12
2018-11-21T23:37:44.479Z,67.25
